createdAt,value
2023-04-27T00:00:19.584Z,0.72
2023-04-27T00:01:19.565Z,0.70
2023-04-27T00:02:19.684Z,0.71
2023-04-27T00:03:19.824Z,0.71
2023-04-27T00:04:19.697Z,0.70
2023-04-27T00:05:19.682Z,0.71
2023-04-27T00:06:19.728Z,0.70
2023-04-27T00:07:19.601Z,0.72
2023-04-27T00:08:19.611Z,0.71
2023-04-27T00:09:19.643Z,0.71
2023-04-27T00:10:19.638Z,0.71
2023-04-27T00:11:19.635Z,0.69
2023-04-27T00:12:19.642Z,0.68
2023-04-27T00:13:19.659Z,0.71
2023-04-27T00:14:19.665Z,0.73
2023-04-27T00:15:19.675Z,0.69
2023-04-27T00:16:19.719Z,0.70
2023-04-27T00:17:19.702Z,0.70
2023-04-27T00:18:19.701Z,0.70
2023-04-27T00:19:19.708Z,0.70
2023-04-27T00:20:19.717Z,0.70
2023-04-27T00:21:19.727Z,0.71
2023-04-27T00:22:19.744Z,0.67
2023-04-27T00:23:19.737Z,0.71
2023-04-27T00:24:19.752Z,0.70
2023-04-27T00:25:19.763Z,0.69
2023-04-27T00:26:19.763Z,0.71
2023-04-27T00:27:19.787Z,0.68
2023-04-27T00:28:19.788Z,0.71
2023-04-27T00:29:19.796Z,0.69
2023-04-27T00:30:19.807Z,0.71
2023-04-27T00:31:19.873Z,0.70
2023-04-27T00:32:19.854Z,0.73
2023-04-27T00:33:19.830Z,0.70
2023-04-27T00:34:19.851Z,0.70
2023-04-27T00:35:19.864Z,0.71
2023-04-27T00:36:19.880Z,0.69
2023-04-27T00:37:19.884Z,0.68
2023-04-27T00:38:19.903Z,0.70
2023-04-27T00:39:19.918Z,0.68
2023-04-27T00:40:19.930Z,0.70
2023-04-27T00:41:19.940Z,0.67
2023-04-27T00:42:19.955Z,0.72
2023-04-27T00:43:19.972Z,0.72
2023-04-27T00:44:19.980Z,0.71
2023-04-27T00:45:19.997Z,0.69
2023-04-27T00:46:20.054Z,0.68
2023-04-27T00:47:20.068Z,0.68
2023-04-27T00:48:20.325Z,0.71
2023-04-27T00:49:20.057Z,0.69
2023-04-27T00:50:20.189Z,0.71
2023-04-27T00:51:20.094Z,0.70
2023-04-27T00:52:20.102Z,0.71
2023-04-27T00:53:20.269Z,0.70
2023-04-27T00:54:20.138Z,0.69
2023-04-27T00:55:20.147Z,0.70
2023-04-27T00:56:20.173Z,0.71
2023-04-27T00:57:20.184Z,0.70
2023-04-27T00:58:20.196Z,0.66
2023-04-27T00:59:20.210Z,0.68
2023-04-27T01:00:20.238Z,0.66
2023-04-27T01:01:20.252Z,0.70
2023-04-27T01:02:20.338Z,0.67
2023-04-27T01:03:20.478Z,0.69
2023-04-27T01:04:20.427Z,0.68
2023-04-27T01:05:20.282Z,0.67
2023-04-27T01:06:20.289Z,0.68
2023-04-27T01:07:20.328Z,0.67
2023-04-27T01:08:20.323Z,0.66
2023-04-27T01:09:20.378Z,0.67
2023-04-27T01:10:20.369Z,0.67
2023-04-27T01:11:20.391Z,0.66
2023-04-27T01:12:20.396Z,0.66
2023-04-27T01:13:20.426Z,0.67
2023-04-27T01:14:20.431Z,0.65
2023-04-27T01:15:20.453Z,0.67
2023-04-27T01:16:20.530Z,0.67
2023-04-27T01:17:20.475Z,0.70
2023-04-27T01:18:20.504Z,0.67
2023-04-27T01:19:20.512Z,0.68
2023-04-27T01:20:20.523Z,0.70
2023-04-27T01:21:20.544Z,0.69
2023-04-27T01:22:20.559Z,0.70
2023-04-27T01:23:20.575Z,0.68
2023-04-27T01:24:20.598Z,0.67
2023-04-27T01:25:20.623Z,0.66
2023-04-27T01:26:20.629Z,0.67
2023-04-27T01:27:20.636Z,0.65
2023-04-27T01:28:20.665Z,0.69
2023-04-27T01:29:20.671Z,0.66
2023-04-27T01:30:20.684Z,0.65
2023-04-27T01:31:20.725Z,0.66
2023-04-27T01:32:20.734Z,0.65
2023-04-27T01:33:20.734Z,0.66
2023-04-27T01:34:20.761Z,0.66
2023-04-27T01:35:20.777Z,0.64
2023-04-27T01:36:20.792Z,0.66
2023-04-27T01:37:20.811Z,0.64
2023-04-27T01:38:20.837Z,0.67
2023-04-27T01:39:20.853Z,0.66
2023-04-27T01:40:20.880Z,0.66
2023-04-27T01:41:20.883Z,0.68
2023-04-27T01:42:20.898Z,0.67
2023-04-27T01:43:20.915Z,0.68
2023-04-27T01:44:20.932Z,0.64
2023-04-27T01:45:20.949Z,0.64
2023-04-27T01:46:20.986Z,0.63
2023-04-27T01:47:20.975Z,0.64
2023-04-27T01:48:20.995Z,0.65
2023-04-27T01:49:21.014Z,0.64
2023-04-27T01:50:21.024Z,0.68
2023-04-27T01:51:21.032Z,0.66
2023-04-27T01:52:21.058Z,0.65
2023-04-27T01:53:21.068Z,0.67
2023-04-27T01:54:21.088Z,0.65
2023-04-27T01:55:21.097Z,0.67
2023-04-27T01:56:21.113Z,0.66
2023-04-27T01:57:21.146Z,0.64
2023-04-27T01:58:21.150Z,0.64
2023-04-27T01:59:21.174Z,0.68
2023-04-27T02:00:21.184Z,0.67
2023-04-27T02:01:21.223Z,0.65
2023-04-27T02:02:21.388Z,0.65
2023-04-27T02:03:21.302Z,0.65
2023-04-27T02:04:21.464Z,0.66
2023-04-27T02:05:21.255Z,0.65
2023-04-27T02:06:21.258Z,0.66
2023-04-27T02:07:21.275Z,0.65
2023-04-27T02:08:21.282Z,0.65
2023-04-27T02:09:21.299Z,0.68
2023-04-27T02:10:21.311Z,0.66
2023-04-27T02:11:21.323Z,0.64
2023-04-27T02:12:21.349Z,0.66
2023-04-27T02:13:21.372Z,0.67
2023-04-27T02:14:21.363Z,0.65
2023-04-27T02:15:21.371Z,0.64
2023-04-27T02:16:21.414Z,0.64
2023-04-27T02:17:21.415Z,0.64
2023-04-27T02:18:21.420Z,0.64
2023-04-27T02:19:21.432Z,0.64
2023-04-27T02:20:21.450Z,0.63
2023-04-27T02:21:21.465Z,0.66
2023-04-27T02:22:21.477Z,0.63
2023-04-27T02:23:21.500Z,0.62
2023-04-27T02:24:21.584Z,0.66
2023-04-27T02:25:21.531Z,0.64
2023-04-27T02:26:21.546Z,0.62
2023-04-27T02:27:21.565Z,0.63
2023-04-27T02:28:21.574Z,0.63
2023-04-27T02:29:21.585Z,0.62
2023-04-27T02:31:40.504Z,0.50
2023-04-27T02:32:40.428Z,0.50
2023-04-27T02:33:40.394Z,0.50
2023-04-27T02:34:40.392Z,0.50
2023-04-27T02:35:40.410Z,0.50
2023-04-27T02:36:40.380Z,0.50
2023-04-27T02:37:40.383Z,0.51
2023-04-27T02:38:40.383Z,0.50
2023-04-27T02:39:40.395Z,0.51
2023-04-27T02:40:40.374Z,0.52
2023-04-27T02:41:40.363Z,0.50
2023-04-27T02:42:40.366Z,0.52
2023-04-27T02:43:40.369Z,0.52
2023-04-27T02:44:40.364Z,0.52
2023-04-27T02:45:40.361Z,0.50
2023-04-27T02:46:40.388Z,0.51
2023-04-27T02:47:40.374Z,0.51
2023-04-27T02:48:40.339Z,0.52
2023-04-27T02:49:40.338Z,0.51
2023-04-27T02:50:40.339Z,0.53
2023-04-27T02:51:40.329Z,0.52
2023-04-27T02:52:40.327Z,0.51
2023-04-27T02:53:40.326Z,0.52
2023-04-27T02:54:40.316Z,0.51
2023-04-27T02:55:40.316Z,0.51
2023-04-27T02:56:40.300Z,0.53
2023-04-27T02:57:40.296Z,0.53
2023-04-27T02:58:40.284Z,0.55
2023-04-27T02:59:40.282Z,0.51
2023-04-27T03:00:40.277Z,0.54
2023-04-27T03:01:40.426Z,0.53
2023-04-27T03:02:40.435Z,0.51
2023-04-27T03:03:40.349Z,0.51
2023-04-27T03:04:40.294Z,0.52
2023-04-27T03:05:40.243Z,0.53
2023-04-27T03:06:40.230Z,0.50
2023-04-27T03:07:40.230Z,0.51
2023-04-27T03:08:40.220Z,0.53
2023-04-27T03:09:40.220Z,0.50
2023-04-27T03:10:40.212Z,0.53
2023-04-27T03:11:40.207Z,0.52
2023-04-27T03:12:40.210Z,0.54
2023-04-27T03:13:40.199Z,0.52
2023-04-27T03:14:40.197Z,0.52
2023-04-27T03:15:40.195Z,0.51
2023-04-27T03:16:40.240Z,0.52
2023-04-27T03:17:40.212Z,0.51
2023-04-27T03:18:40.189Z,0.53
2023-04-27T03:19:40.185Z,0.54
2023-04-27T03:20:40.184Z,0.50
2023-04-27T03:21:40.172Z,0.53
2023-04-27T03:22:40.177Z,0.54
2023-04-27T03:23:40.175Z,0.50
2023-04-27T03:24:40.165Z,0.51
2023-04-27T03:25:40.162Z,0.54
2023-04-27T03:26:40.155Z,0.52
2023-04-27T03:27:40.147Z,0.52
2023-04-27T03:28:40.135Z,0.51
2023-04-27T03:29:40.143Z,0.54
2023-04-27T03:30:40.128Z,0.50
2023-04-27T03:31:40.167Z,0.51
2023-04-27T03:32:40.153Z,0.52
2023-04-27T03:33:40.112Z,0.52
2023-04-27T03:34:40.118Z,0.51
2023-04-27T03:35:40.110Z,0.52
2023-04-27T03:36:40.146Z,0.54
2023-04-27T03:37:40.099Z,0.52
2023-04-27T03:38:40.093Z,0.52
2023-04-27T03:39:40.089Z,0.52
2023-04-27T03:40:40.097Z,0.51
2023-04-27T03:41:40.062Z,0.53
2023-04-27T03:42:40.068Z,0.54
2023-04-27T03:43:40.053Z,0.53
2023-04-27T03:44:40.054Z,0.52
2023-04-27T03:45:40.044Z,0.51
2023-04-27T03:46:40.014Z,0.52
2023-04-27T03:47:40.168Z,0.51
2023-04-27T03:48:39.983Z,0.55
2023-04-27T03:49:39.982Z,0.52
2023-04-27T03:50:39.967Z,0.51
2023-04-27T03:51:39.960Z,0.52
2023-04-27T03:52:39.955Z,0.52
2023-04-27T03:53:39.938Z,0.51
2023-04-27T03:54:39.944Z,0.54
2023-04-27T03:55:39.936Z,0.51
2023-04-27T03:56:39.931Z,0.50
2023-04-27T03:57:39.936Z,0.54
2023-04-27T03:58:39.941Z,0.53
2023-04-27T03:59:39.931Z,0.52
2023-04-27T04:00:39.918Z,0.53
2023-04-27T04:01:40.010Z,0.52
2023-04-27T04:02:40.084Z,0.53
2023-04-27T04:03:40.042Z,0.53
2023-04-27T04:04:40.125Z,0.54
2023-04-27T04:05:39.906Z,0.53
2023-04-27T04:06:39.920Z,0.52
2023-04-27T04:07:39.939Z,0.51
2023-04-27T04:08:39.954Z,0.52
2023-04-27T04:09:39.979Z,0.53
2023-04-27T04:10:39.989Z,0.53
2023-04-27T04:11:40.013Z,0.53
2023-04-27T04:12:40.044Z,0.52
2023-04-27T04:13:40.072Z,0.54
2023-04-27T04:14:40.091Z,0.51
2023-04-27T04:15:40.161Z,0.55
2023-04-27T04:16:40.133Z,0.53
2023-04-27T04:17:40.174Z,0.53
2023-04-27T04:18:40.176Z,0.53
2023-04-27T04:19:40.206Z,0.55
2023-04-27T04:20:40.223Z,0.53
2023-04-27T04:21:40.249Z,0.51
2023-04-27T04:22:40.271Z,0.53
2023-04-27T04:23:40.290Z,0.54
2023-04-27T04:24:40.317Z,0.51
2023-04-27T04:25:40.383Z,0.53
2023-04-27T04:26:40.345Z,0.51
2023-04-27T04:27:40.383Z,0.52
2023-04-27T04:28:40.400Z,0.51
2023-04-27T04:29:40.437Z,0.52
2023-04-27T04:30:40.448Z,0.54
2023-04-27T04:31:40.484Z,0.53
2023-04-27T04:32:40.536Z,0.51
2023-04-27T04:33:40.495Z,0.50
2023-04-27T04:34:40.516Z,0.54
2023-04-27T04:35:40.532Z,0.52
2023-04-27T04:36:40.573Z,0.54
2023-04-27T04:37:40.598Z,0.55
2023-04-27T04:38:40.596Z,0.51
2023-04-27T04:39:40.620Z,0.54
2023-04-27T04:40:40.655Z,0.55
2023-04-27T04:41:40.670Z,0.52
2023-04-27T04:42:40.702Z,0.52
2023-04-27T04:43:40.721Z,0.52
2023-04-27T04:44:40.774Z,0.54
2023-04-27T04:45:40.787Z,0.52
2023-04-27T04:46:40.873Z,0.51
2023-04-27T04:47:40.853Z,0.52
2023-04-27T04:48:40.846Z,0.55
2023-04-27T04:49:40.879Z,0.54
2023-04-27T04:50:40.897Z,0.54
2023-04-27T04:51:40.917Z,0.53
2023-04-27T04:52:40.939Z,0.51
2023-04-27T04:53:40.964Z,0.52
2023-04-27T04:54:40.982Z,0.53
2023-04-27T04:55:41.003Z,0.52
2023-04-27T04:56:41.017Z,0.51
2023-04-27T04:57:41.051Z,0.52
2023-04-27T04:58:41.071Z,0.52
2023-04-27T04:59:41.080Z,0.53
2023-04-27T05:00:41.107Z,0.52
2023-04-27T05:01:41.202Z,0.52
2023-04-27T05:02:41.355Z,0.51
2023-04-27T05:03:41.397Z,0.53
2023-04-27T05:04:41.355Z,0.52
2023-04-27T05:05:41.230Z,0.52
2023-04-27T05:06:41.254Z,0.52
2023-04-27T05:07:41.272Z,0.52
2023-04-27T05:08:41.294Z,0.52
2023-04-27T05:09:42.111Z,0.51
2023-04-27T05:10:41.345Z,0.52
2023-04-27T05:11:41.359Z,0.54
2023-04-27T05:12:41.389Z,0.53
2023-04-27T05:13:41.410Z,0.52
2023-04-27T05:14:41.411Z,0.53
2023-04-27T05:15:41.429Z,0.53
2023-04-27T05:16:41.552Z,0.53
2023-04-27T05:17:41.530Z,0.53
2023-04-27T05:18:41.503Z,0.53
2023-04-27T05:19:41.516Z,0.53
2023-04-27T05:20:41.552Z,0.50
2023-04-27T05:21:41.559Z,0.54
2023-04-27T05:22:41.569Z,0.54
2023-04-27T05:23:41.598Z,0.50
2023-04-27T05:24:41.605Z,0.51
2023-04-27T05:25:41.739Z,0.53
2023-04-27T05:26:41.628Z,0.56
2023-04-27T05:27:41.650Z,0.61
2023-04-27T05:28:41.650Z,0.66
2023-04-27T05:29:41.649Z,0.65
2023-04-27T05:30:41.632Z,0.67
2023-04-27T05:31:41.678Z,0.68
2023-04-27T05:32:41.688Z,0.72
2023-04-27T05:33:41.689Z,0.75
2023-04-27T05:34:41.752Z,0.76
2023-04-27T05:35:41.807Z,0.84
2023-04-27T05:36:41.854Z,0.87
2023-04-27T05:37:42.036Z,0.91
2023-04-27T05:38:41.961Z,0.99
2023-04-27T05:39:41.974Z,0.98
2023-04-27T05:40:42.017Z,1.02
2023-04-27T05:41:42.054Z,1.13
2023-04-27T05:42:42.058Z,1.18
2023-04-27T05:43:42.141Z,1.24
2023-04-27T05:44:42.172Z,1.33
2023-04-27T05:45:42.180Z,1.35
2023-04-27T05:46:42.186Z,1.45
2023-04-27T05:47:42.187Z,1.52
2023-04-27T05:48:42.170Z,1.62
2023-04-27T05:49:42.185Z,1.62
2023-04-27T05:50:42.186Z,1.63
2023-04-27T05:51:42.159Z,1.66
2023-04-27T05:52:42.106Z,1.75
2023-04-27T05:53:42.172Z,1.89
2023-04-27T05:54:42.057Z,2.11
2023-04-27T05:55:42.023Z,2.27
2023-04-27T05:56:42.014Z,2.41
2023-04-27T05:57:41.983Z,2.41
2023-04-27T05:58:41.947Z,2.52
2023-04-27T05:59:41.937Z,2.58
2023-04-27T06:00:41.916Z,2.76
2023-04-27T06:01:41.887Z,2.85
2023-04-27T06:02:41.977Z,3.07
2023-04-27T06:03:42.028Z,3.19
2023-04-27T06:04:41.870Z,3.32
2023-04-27T06:05:41.944Z,3.46
2023-04-27T06:06:41.761Z,3.63
2023-04-27T06:07:41.727Z,3.85
2023-04-27T06:08:41.697Z,3.97
2023-04-27T06:09:41.776Z,4.03
2023-04-27T06:10:41.663Z,4.21
2023-04-27T06:11:41.646Z,4.41
2023-04-27T06:12:41.641Z,4.63
2023-04-27T06:13:41.621Z,4.66
2023-04-27T06:14:41.598Z,4.78
2023-04-27T06:15:41.651Z,5.09
2023-04-27T06:16:41.558Z,5.31
2023-04-27T06:17:41.612Z,5.42
2023-04-27T06:18:41.524Z,5.78
2023-04-27T06:19:41.494Z,5.94
2023-04-27T06:20:41.481Z,6.03
2023-04-27T06:21:41.452Z,5.87
2023-04-27T06:22:41.442Z,6.04
2023-04-27T06:23:42.158Z,5.76
2023-04-27T06:24:41.480Z,5.99
2023-04-27T06:25:41.374Z,6.31
2023-04-27T06:26:42.142Z,6.52
2023-04-27T06:27:41.320Z,7.18
2023-04-27T06:28:41.326Z,7.34
2023-04-27T06:29:41.322Z,7.36
2023-04-27T06:30:41.289Z,7.44
2023-04-27T06:31:41.321Z,7.61
2023-04-27T06:32:41.272Z,7.98
2023-04-27T06:33:41.191Z,8.58
2023-04-27T06:34:41.153Z,8.68
2023-04-27T06:35:41.148Z,8.92
2023-04-27T06:36:41.736Z,9.07
2023-04-27T06:37:41.078Z,8.89
2023-04-27T06:38:41.037Z,9.29
2023-04-27T06:39:41.066Z,9.40
2023-04-27T06:40:41.079Z,9.82
2023-04-27T06:41:41.069Z,9.95
2023-04-27T06:42:41.108Z,9.50
2023-04-27T06:43:41.134Z,10.04
2023-04-27T06:44:41.176Z,10.17
2023-04-27T06:45:41.219Z,10.37
2023-04-27T06:46:41.299Z,10.69
2023-04-27T06:47:41.375Z,11.24
2023-04-27T06:48:41.342Z,11.51
2023-04-27T06:49:41.373Z,11.59
2023-04-27T06:50:41.419Z,12.17
2023-04-27T06:51:41.483Z,12.43
2023-04-27T06:52:41.494Z,12.81
2023-04-27T06:53:41.532Z,12.95
2023-04-27T06:54:41.578Z,13.76
2023-04-27T06:55:43.532Z,13.74
2023-04-27T06:56:41.605Z,14.11
2023-04-27T06:57:41.570Z,14.07
2023-04-27T06:58:41.553Z,14.51
2023-04-27T06:59:41.514Z,14.74
2023-04-27T07:00:41.497Z,15.07
2023-04-27T07:01:41.502Z,15.39
2023-04-27T07:02:42.211Z,15.77
2023-04-27T07:03:41.585Z,15.66
2023-04-27T07:04:41.404Z,15.73
2023-04-27T07:05:41.358Z,15.72
2023-04-27T07:06:41.337Z,16.12
2023-04-27T07:07:41.299Z,16.07
2023-04-27T07:08:41.272Z,16.84
2023-04-27T07:09:41.251Z,16.89
2023-04-27T07:10:41.243Z,17.47
2023-04-27T07:11:41.190Z,18.24
2023-04-27T07:12:41.163Z,18.23
2023-04-27T07:13:41.136Z,18.80
2023-04-27T07:14:41.102Z,18.88
2023-04-27T07:15:41.108Z,20.03
2023-04-27T07:16:41.115Z,20.32
2023-04-27T07:17:41.004Z,20.27
2023-04-27T07:18:42.082Z,20.51
2023-04-27T07:19:40.974Z,14.71
2023-04-27T07:20:42.169Z,9.07
2023-04-27T07:21:41.149Z,5.69
2023-04-27T07:22:41.842Z,4.72
2023-04-27T07:23:40.939Z,4.05
2023-04-27T07:24:40.929Z,4.02
2023-04-27T07:25:40.897Z,3.86
2023-04-27T07:26:40.867Z,3.78
2023-04-27T07:27:41.594Z,3.92
2023-04-27T07:28:40.865Z,3.99
2023-04-27T07:29:41.588Z,4.11
2023-04-27T07:30:40.909Z,4.22
2023-04-27T07:31:40.996Z,4.33
2023-04-27T07:32:41.033Z,4.48
2023-04-27T07:33:41.019Z,4.52
2023-04-27T07:34:52.079Z,4.91
2023-04-27T07:35:42.074Z,4.92
2023-04-27T07:36:40.998Z,4.96
2023-04-27T07:37:40.960Z,5.02
2023-04-27T07:38:40.923Z,5.14
2023-04-27T07:39:40.882Z,5.48
2023-04-27T07:40:42.118Z,5.69
2023-04-27T07:41:40.826Z,5.89
2023-04-27T07:42:40.784Z,6.09
2023-04-27T07:43:40.770Z,6.38
2023-04-27T07:44:40.878Z,6.51
2023-04-27T07:45:40.828Z,6.77
2023-04-27T07:46:40.799Z,6.99
2023-04-27T07:47:40.825Z,7.23
2023-04-27T07:48:40.780Z,7.21
2023-04-27T07:49:40.784Z,7.53
2023-04-27T07:50:40.889Z,7.79
2023-04-27T07:51:40.799Z,7.99
2023-04-27T07:52:40.761Z,8.20
2023-04-27T07:53:40.769Z,8.48
2023-04-27T07:54:40.784Z,8.69
2023-04-27T07:55:40.781Z,9.09
2023-04-27T07:56:40.771Z,9.39
2023-04-27T07:57:40.776Z,9.65
2023-04-27T07:58:40.779Z,9.92
2023-04-27T07:59:40.772Z,10.32
2023-04-27T08:00:40.775Z,10.56
2023-04-27T08:01:40.760Z,10.92
2023-04-27T08:02:40.897Z,11.07
2023-04-27T08:03:41.013Z,11.64
2023-04-27T08:04:41.153Z,11.87
2023-04-27T08:05:41.236Z,12.21
2023-04-27T08:06:41.273Z,13.06
2023-04-27T08:07:44.468Z,13.10
2023-04-27T08:08:40.883Z,13.05
2023-04-27T08:09:40.616Z,12.95
2023-04-27T08:10:41.174Z,11.17
2023-04-27T08:11:40.568Z,11.35
2023-04-27T08:12:40.530Z,10.96
2023-04-27T08:13:41.105Z,8.27
2023-04-27T08:14:40.475Z,5.29
2023-04-27T08:15:41.192Z,4.42
2023-04-27T08:16:40.482Z,3.15
2023-04-27T08:17:40.465Z,2.32
2023-04-27T08:18:40.397Z,1.99
2023-04-27T08:19:40.365Z,1.53
2023-04-27T08:20:40.342Z,1.29
2023-04-27T08:21:40.318Z,1.02
2023-04-27T08:22:40.320Z,0.74
2023-04-27T08:23:40.278Z,0.62
2023-04-27T08:24:40.266Z,0.59
2023-04-27T08:25:40.244Z,0.62
2023-04-27T08:26:40.234Z,0.63
2023-04-27T08:27:40.349Z,0.62
2023-04-27T08:28:40.195Z,0.66
2023-04-27T08:29:40.163Z,0.71
2023-04-27T08:30:40.151Z,0.72
2023-04-27T08:31:40.255Z,0.79
2023-04-27T08:32:40.146Z,0.84
2023-04-27T08:33:40.215Z,0.88
2023-04-27T08:34:40.058Z,0.94
2023-04-27T08:35:40.697Z,0.97
2023-04-27T08:36:40.020Z,1.03
2023-04-27T08:37:39.997Z,1.08
2023-04-27T08:38:40.687Z,1.15
2023-04-27T08:39:39.941Z,1.21
2023-04-27T08:40:39.907Z,1.29
2023-04-27T08:41:42.708Z,1.36
2023-04-27T08:42:39.957Z,1.45
2023-04-27T08:43:39.844Z,1.52
2023-04-27T08:44:39.834Z,1.61
2023-04-27T08:45:39.790Z,1.66
2023-04-27T08:46:39.806Z,1.74
2023-04-27T08:47:43.254Z,1.81
2023-04-27T08:48:40.735Z,1.82
2023-04-27T08:49:39.676Z,1.85
2023-04-27T08:50:39.657Z,1.92
2023-04-27T08:51:39.625Z,2.08
2023-04-27T08:52:39.592Z,2.37
2023-04-27T08:53:39.562Z,2.49
2023-04-27T08:54:39.554Z,2.60
2023-04-27T08:55:39.519Z,2.65
2023-04-27T08:56:39.495Z,2.79
2023-04-27T08:57:39.496Z,2.91
2023-04-27T08:58:39.554Z,3.08
2023-04-27T08:59:39.553Z,3.22
2023-04-27T09:00:39.561Z,3.27
2023-04-27T09:01:39.629Z,3.37
2023-04-27T09:02:39.697Z,3.51
2023-04-27T09:03:39.834Z,3.67
2023-04-27T09:04:39.763Z,3.84
2023-04-27T09:05:46.629Z,3.90
2023-04-27T09:06:40.615Z,3.91
2023-04-27T09:07:39.557Z,3.92
2023-04-27T09:08:39.711Z,4.00
2023-04-27T09:09:39.492Z,4.16
2023-04-27T09:10:39.453Z,4.47
2023-04-27T09:11:39.410Z,4.99
2023-04-27T09:12:39.384Z,5.29
2023-04-27T09:13:39.417Z,5.43
2023-04-27T09:14:39.396Z,5.78
2023-04-27T09:15:40.275Z,5.79
2023-04-27T09:16:39.257Z,5.61
2023-04-27T09:17:39.235Z,5.57
2023-04-27T09:18:39.185Z,5.46
2023-04-27T09:19:39.154Z,3.20
2023-04-27T09:20:39.119Z,2.28
2023-04-27T09:21:39.111Z,1.85
2023-04-27T09:22:39.063Z,1.71
2023-04-27T09:23:39.173Z,1.78
2023-04-27T09:24:39.081Z,2.12
2023-04-27T09:25:38.959Z,2.29
2023-04-27T09:26:38.959Z,2.49
2023-04-27T09:27:38.924Z,2.43
2023-04-27T09:28:38.897Z,2.47
2023-04-27T09:29:38.992Z,2.49
2023-04-27T09:30:38.809Z,2.51
2023-04-27T09:31:38.788Z,2.52
2023-04-27T09:32:38.748Z,2.54
2023-04-27T09:33:39.230Z,2.59
2023-04-27T09:34:38.693Z,2.59
2023-04-27T09:35:38.677Z,2.54
2023-04-27T09:36:38.668Z,2.58
2023-04-27T09:37:39.170Z,2.54
2023-04-27T09:38:38.624Z,2.51
2023-04-27T09:39:38.608Z,2.50
2023-04-27T09:40:38.599Z,2.51
2023-04-27T09:41:40.237Z,2.52
2023-04-27T09:42:38.555Z,2.53
2023-04-27T09:43:38.552Z,2.55
2023-04-27T09:44:38.584Z,2.56
2023-04-27T09:45:38.490Z,2.58
2023-04-27T09:46:39.220Z,2.60
2023-04-27T09:47:38.487Z,2.62
2023-04-27T09:48:38.381Z,2.63
2023-04-27T09:49:38.379Z,2.64
2023-04-27T09:50:38.372Z,2.64
2023-04-27T09:51:38.309Z,2.62
2023-04-27T09:52:38.281Z,2.61
2023-04-27T09:53:38.277Z,2.57
2023-04-27T09:54:38.301Z,2.60
2023-04-27T09:55:38.207Z,2.58
2023-04-27T09:56:38.190Z,2.52
2023-04-27T09:57:38.881Z,2.56
2023-04-27T09:58:38.154Z,2.56
2023-04-27T09:59:39.110Z,2.56
2023-04-27T10:00:38.072Z,2.57
2023-04-27T10:01:38.100Z,2.56
2023-04-27T10:02:50.307Z,2.58
2023-04-27T10:03:39.080Z,2.56
2023-04-27T10:04:38.076Z,2.57
2023-04-27T10:05:38.036Z,2.58
2023-04-27T10:06:37.968Z,2.60
2023-04-27T10:07:37.923Z,2.62
2023-04-27T10:08:38.907Z,2.56
2023-04-27T10:09:37.859Z,2.56
2023-04-27T10:10:37.823Z,2.57
2023-04-27T10:11:37.807Z,2.57
2023-04-27T10:12:37.787Z,2.56
2023-04-27T10:13:37.761Z,2.56
2023-04-27T10:14:37.732Z,2.53
2023-04-27T10:15:37.695Z,2.52
2023-04-27T10:16:37.683Z,2.45
2023-04-27T10:17:37.766Z,2.53
2023-04-27T10:18:37.619Z,2.42
2023-04-27T10:19:37.609Z,2.45
2023-04-27T10:20:37.593Z,2.43
2023-04-27T10:21:37.563Z,2.44
2023-04-27T10:22:37.518Z,2.37
2023-04-27T10:23:37.507Z,2.40
2023-04-27T10:24:37.472Z,2.38
2023-04-27T10:25:37.454Z,2.40
2023-04-27T10:26:39.319Z,2.38
2023-04-27T10:27:38.223Z,2.34
2023-04-27T10:28:37.507Z,2.40
2023-04-27T10:29:37.508Z,2.34
2023-04-27T10:30:37.530Z,2.36
2023-04-27T10:31:37.507Z,2.35
2023-04-27T10:32:37.644Z,2.32
2023-04-27T10:33:37.528Z,2.34
2023-04-27T10:34:37.536Z,2.29
2023-04-27T10:35:37.537Z,2.31
2023-04-27T10:36:38.253Z,2.31
2023-04-27T10:37:37.562Z,2.26
2023-04-27T10:38:37.588Z,2.30
2023-04-27T10:39:47.909Z,2.27
2023-04-27T10:40:38.576Z,2.27
2023-04-27T10:41:37.502Z,2.27
2023-04-27T10:42:37.475Z,2.28
2023-04-27T10:43:37.515Z,2.28
2023-04-27T10:44:37.440Z,2.30
2023-04-27T10:45:37.419Z,2.26
2023-04-27T10:46:37.467Z,2.24
2023-04-27T10:47:37.396Z,2.26
2023-04-27T10:48:37.348Z,2.24
2023-04-27T10:49:37.312Z,2.23
2023-04-27T10:50:37.309Z,2.25
2023-04-27T10:51:37.268Z,2.25
2023-04-27T10:52:37.244Z,2.21
2023-04-27T10:53:37.216Z,2.21
2023-04-27T10:54:37.201Z,2.19
2023-04-27T10:55:37.181Z,2.18
2023-04-27T10:56:37.147Z,2.15
2023-04-27T10:57:37.119Z,2.18
2023-04-27T10:58:48.247Z,2.17
2023-04-27T10:59:38.066Z,2.17
2023-04-27T11:00:37.037Z,2.17
2023-04-27T11:01:37.046Z,2.17
2023-04-27T11:02:37.050Z,2.17
2023-04-27T11:03:37.132Z,2.15
2023-04-27T11:04:37.021Z,2.10
2023-04-27T11:05:36.941Z,2.11
2023-04-27T11:06:36.922Z,2.11
2023-04-27T11:07:36.887Z,2.13
2023-04-27T11:08:36.914Z,2.12
2023-04-27T11:09:36.852Z,2.10
2023-04-27T11:10:36.823Z,2.10
2023-04-27T11:11:36.791Z,2.10
2023-04-27T11:12:36.819Z,2.12
2023-04-27T11:13:36.739Z,2.08
2023-04-27T11:14:36.733Z,2.08
2023-04-27T11:15:36.685Z,2.10
2023-04-27T11:16:36.698Z,2.09
2023-04-27T11:17:36.665Z,2.03
2023-04-27T11:18:36.621Z,2.04
2023-04-27T11:19:36.601Z,2.03
2023-04-27T11:20:36.583Z,2.03
2023-04-27T11:21:36.558Z,2.04
2023-04-27T11:22:36.563Z,2.03
2023-04-27T11:23:36.549Z,1.99
2023-04-27T11:24:36.556Z,1.98
2023-04-27T11:25:36.545Z,1.93
2023-04-27T11:26:36.543Z,1.96
2023-04-27T11:27:36.530Z,1.96
2023-04-27T11:28:36.528Z,1.93
2023-04-27T11:29:36.538Z,1.92
2023-04-27T11:30:36.506Z,1.90
2023-04-27T11:31:36.544Z,1.88
2023-04-27T11:32:36.541Z,1.92
2023-04-27T11:33:36.483Z,1.89
2023-04-27T11:34:36.475Z,1.91
2023-04-27T11:35:36.481Z,1.93
2023-04-27T11:36:36.466Z,1.90
2023-04-27T11:37:36.449Z,1.90
2023-04-27T11:38:36.484Z,1.86
2023-04-27T11:39:36.434Z,1.90
2023-04-27T11:40:36.423Z,1.86
2023-04-27T11:41:36.419Z,1.85
2023-04-27T11:42:36.417Z,1.87
2023-04-27T11:43:36.385Z,1.87
2023-04-27T11:44:36.368Z,1.83
2023-04-27T11:45:36.346Z,1.83
2023-04-27T11:46:36.380Z,1.83
2023-04-27T11:47:36.350Z,1.82
2023-04-27T11:48:36.317Z,1.82
2023-04-27T11:49:36.289Z,1.80
2023-04-27T11:50:36.266Z,1.77
2023-04-27T11:51:36.258Z,1.78
2023-04-27T11:52:36.246Z,1.76
2023-04-27T11:53:36.218Z,1.77
2023-04-27T11:54:36.189Z,1.77
2023-04-27T11:55:36.163Z,1.79
2023-04-27T11:56:36.227Z,1.75
2023-04-27T11:57:36.170Z,1.74
2023-04-27T11:58:36.152Z,1.73
2023-04-27T11:59:36.091Z,1.74
2023-04-27T12:00:36.058Z,1.73
2023-04-27T12:01:38.461Z,1.72
2023-04-27T12:02:36.281Z,1.72
2023-04-27T12:03:36.389Z,1.73
2023-04-27T12:04:36.237Z,1.69
2023-04-27T12:05:36.079Z,1.71
2023-04-27T12:06:36.082Z,1.69
2023-04-27T12:07:36.022Z,1.66
2023-04-27T12:08:35.999Z,1.65
2023-04-27T12:09:35.977Z,1.66
2023-04-27T12:10:35.942Z,1.66
2023-04-27T12:11:36.772Z,1.65
2023-04-27T12:12:35.932Z,1.63
2023-04-27T12:13:35.880Z,1.63
2023-04-27T12:14:35.852Z,1.62
2023-04-27T12:15:35.827Z,1.64
2023-04-27T12:16:35.838Z,1.63
2023-04-27T12:17:35.820Z,1.63
2023-04-27T12:18:35.761Z,1.60
2023-04-27T12:19:35.737Z,1.63
2023-04-27T12:20:35.759Z,1.61
2023-04-27T12:21:35.768Z,1.59
2023-04-27T12:22:35.783Z,1.61
2023-04-27T12:23:35.806Z,1.60
2023-04-27T12:24:35.805Z,1.59
2023-04-27T12:25:35.777Z,1.59
2023-04-27T12:26:35.770Z,1.59
2023-04-27T12:27:35.751Z,1.54
2023-04-27T12:28:35.734Z,1.56
2023-04-27T12:29:35.731Z,1.54
2023-04-27T12:30:35.773Z,1.54
2023-04-27T12:31:35.887Z,1.54
2023-04-27T12:32:35.807Z,1.55
2023-04-27T12:33:35.826Z,1.55
2023-04-27T12:35:35.891Z,1.52
2023-04-27T12:36:35.910Z,1.50
2023-04-27T12:37:35.936Z,1.51
2023-04-27T12:38:35.961Z,1.47
2023-04-27T12:39:36.006Z,1.50
2023-04-27T12:40:36.045Z,1.51
2023-04-27T12:41:36.078Z,1.48
2023-04-27T12:42:36.130Z,1.45
2023-04-27T12:43:36.149Z,1.45
2023-04-27T12:44:36.181Z,1.46
2023-04-27T12:45:36.212Z,1.45
2023-04-27T12:46:36.299Z,1.43
2023-04-27T12:48:36.315Z,1.46
2023-04-27T12:49:36.222Z,1.49
2023-04-27T12:50:36.188Z,1.43
2023-04-27T12:51:36.152Z,1.41
2023-04-27T12:52:36.122Z,1.41
2023-04-27T12:53:36.101Z,1.41
2023-04-27T12:54:36.097Z,1.45
2023-04-27T12:55:36.046Z,1.41
2023-04-27T12:56:36.013Z,1.38
2023-04-27T12:57:35.988Z,1.36
2023-04-27T12:58:35.999Z,1.39
2023-04-27T12:59:35.925Z,1.36
2023-04-27T13:00:35.899Z,1.35
2023-04-27T13:01:35.891Z,1.36
2023-04-27T13:02:35.938Z,1.38
2023-04-27T13:03:35.903Z,1.33
2023-04-27T13:04:35.887Z,1.35
2023-04-27T13:05:35.756Z,1.37
2023-04-27T13:06:35.712Z,1.37
2023-04-27T13:07:35.695Z,1.34
2023-04-27T13:08:35.665Z,1.33
2023-04-27T13:09:35.631Z,1.34
2023-04-27T13:10:36.623Z,1.34
2023-04-27T13:11:35.569Z,1.34
2023-04-27T13:12:35.540Z,1.34
2023-04-27T13:13:35.513Z,1.34
2023-04-27T13:14:35.492Z,1.32
2023-04-27T13:15:35.461Z,1.31
2023-04-27T13:16:35.469Z,1.32
2023-04-27T13:17:35.466Z,1.30
2023-04-27T13:18:35.370Z,1.31
2023-04-27T13:19:35.375Z,1.28